sensor_id;sensor_type;location;lat;lon;timestamp;P1;durP1;ratioP1;P2;durP2;ratioP2
36651;SDS011;53334;51.976;20.144;2022-08-21T00:00:26;5.35;;;4.85;;
36651;SDS011;53334;51.976;20.144;2022-08-21T00:03:04;4.95;;;4.55;;
36651;SDS011;53334;51.976;20.144;2022-08-21T00:05:40;5.18;;;4.68;;
36651;SDS011;53334;51.976;20.144;2022-08-21T00:08:16;4.75;;;4.35;;
36651;SDS011;53334;51.976;20.144;2022-08-21T00:10:51;5.18;;;4.68;;
36651;SDS011;53334;51.976;20.144;2022-08-21T00:13:25;5.00;;;4.55;;
36651;SDS011;53334;51.976;20.144;2022-08-21T00:16:01;5.18;;;4.68;;
36651;SDS011;53334;51.976;20.144;2022-08-21T00:18:35;4.57;;;4.18;;
36651;SDS011;53334;51.976;20.144;2022-08-21T00:21:10;4.40;;;4.10;;
36651;SDS011;53334;51.976;20.144;2022-08-21T00:23:45;4.72;;;4.32;;
36651;SDS011;53334;51.976;20.144;2022-08-21T00:26:19;4.43;;;4.03;;
36651;SDS011;53334;51.976;20.144;2022-08-21T00:28:53;4.80;;;4.40;;
36651;SDS011;53334;51.976;20.144;2022-08-21T00:31:31;5.00;;;4.50;;
36651;SDS011;53334;51.976;20.144;2022-08-21T00:34:05;5.25;;;4.70;;
36651;SDS011;53334;51.976;20.144;2022-08-21T00:36:39;5.07;;;4.63;;
36651;SDS011;53334;51.976;20.144;2022-08-21T00:39:13;6.30;;;5.15;;
36651;SDS011;53334;51.976;20.144;2022-08-21T00:41:47;5.32;;;4.93;;
36651;SDS011;53334;51.976;20.144;2022-08-21T00:44:22;4.80;;;4.40;;
36651;SDS011;53334;51.976;20.144;2022-08-21T00:46:57;5.35;;;4.88;;
36651;SDS011;53334;51.976;20.144;2022-08-21T00:49:31;4.63;;;4.22;;
36651;SDS011;53334;51.976;20.144;2022-08-21T00:52:06;4.63;;;4.22;;
36651;SDS011;53334;51.976;20.144;2022-08-21T00:54:43;4.88;;;4.38;;
36651;SDS011;53334;51.976;20.144;2022-08-21T00:57:19;6.22;;;4.60;;
36651;SDS011;53334;51.976;20.144;2022-08-21T00:59:58;4.57;;;4.18;;
36651;SDS011;53334;51.976;20.144;2022-08-21T01:02:37;4.82;;;4.43;;
36651;SDS011;53334;51.976;20.144;2022-08-21T01:05:11;4.35;;;4.00;;
36651;SDS011;53334;51.976;20.144;2022-08-21T01:07:46;4.90;;;4.50;;
36651;SDS011;53334;51.976;20.144;2022-08-21T01:10:20;4.82;;;4.43;;
36651;SDS011;53334;51.976;20.144;2022-08-21T01:12:55;4.80;;;4.38;;
36651;SDS011;53334;51.976;20.144;2022-08-21T01:15:32;4.53;;;4.13;;
36651;SDS011;53334;51.976;20.144;2022-08-21T01:18:10;5.07;;;4.57;;
36651;SDS011;53334;51.976;20.144;2022-08-21T01:20:58;4.85;;;4.43;;
36651;SDS011;53334;51.976;20.144;2022-08-21T01:23:38;5.05;;;4.55;;
36651;SDS011;53334;51.976;20.144;2022-08-21T01:26:14;4.97;;;4.57;;
36651;SDS011;53334;51.976;20.144;2022-08-21T01:28:52;4.90;;;4.50;;
36651;SDS011;53334;51.976;20.144;2022-08-21T01:31:30;4.47;;;4.07;;
36651;SDS011;53334;51.976;20.144;2022-08-21T01:34:05;4.72;;;4.25;;
36651;SDS011;53334;51.976;20.144;2022-08-21T01:36:41;5.25;;;4.25;;
36651;SDS011;53334;51.976;20.144;2022-08-21T01:39:18;5.25;;;4.70;;
36651;SDS011;53334;51.976;20.144;2022-08-21T01:41:53;4.85;;;4.45;;
36651;SDS011;53334;51.976;20.144;2022-08-21T01:44:27;4.60;;;4.20;;
36651;SDS011;53334;51.976;20.144;2022-08-21T01:47:03;5.72;;;4.38;;
36651;SDS011;53334;51.976;20.144;2022-08-21T01:49:39;4.68;;;4.15;;
36651;SDS011;53334;51.976;20.144;2022-08-21T01:52:16;4.13;;;3.78;;
36651;SDS011;53334;51.976;20.144;2022-08-21T01:54:50;4.63;;;4.20;;
36651;SDS011;53334;51.976;20.144;2022-08-21T01:57:26;4.80;;;4.40;;
36651;SDS011;53334;51.976;20.144;2022-08-21T02:00:01;5.15;;;4.65;;
36651;SDS011;53334;51.976;20.144;2022-08-21T02:02:42;4.50;;;4.10;;
36651;SDS011;53334;51.976;20.144;2022-08-21T02:05:16;5.10;;;4.70;;
36651;SDS011;53334;51.976;20.144;2022-08-21T02:07:53;4.80;;;4.40;;
36651;SDS011;53334;51.976;20.144;2022-08-21T02:10:29;4.13;;;3.83;;
36651;SDS011;53334;51.976;20.144;2022-08-21T02:13:04;5.85;;;4.43;;
36651;SDS011;53334;51.976;20.144;2022-08-21T02:15:44;4.03;;;3.72;;
36651;SDS011;53334;51.976;20.144;2022-08-21T02:18:18;4.65;;;4.25;;
36651;SDS011;53334;51.976;20.144;2022-08-21T02:20:52;5.00;;;4.50;;
36651;SDS011;53334;51.976;20.144;2022-08-21T02:23:29;4.50;;;4.10;;
36651;SDS011;53334;51.976;20.144;2022-08-21T02:26:04;4.30;;;3.90;;
36651;SDS011;53334;51.976;20.144;2022-08-21T02:28:39;3.97;;;3.67;;
36651;SDS011;53334;51.976;20.144;2022-08-21T02:31:14;3.67;;;3.38;;
36651;SDS011;53334;51.976;20.144;2022-08-21T02:33:48;4.50;;;4.10;;
36651;SDS011;53334;51.976;20.144;2022-08-21T02:36:22;4.63;;;4.20;;
36651;SDS011;53334;51.976;20.144;2022-08-21T02:38:57;4.57;;;4.18;;
36651;SDS011;53334;51.976;20.144;2022-08-21T02:41:32;4.57;;;4.18;;
36651;SDS011;53334;51.976;20.144;2022-08-21T02:44:08;4.32;;;4.03;;
36651;SDS011;53334;51.976;20.144;2022-08-21T02:46:42;3.90;;;3.58;;
36651;SDS011;53334;51.976;20.144;2022-08-21T02:49:16;5.55;;;5.00;;
36651;SDS011;53334;51.976;20.144;2022-08-21T02:51:50;4.65;;;4.22;;
36651;SDS011;53334;51.976;20.144;2022-08-21T02:54:25;4.25;;;3.85;;
36651;SDS011;53334;51.976;20.144;2022-08-21T02:57:00;3.97;;;3.67;;
36651;SDS011;53334;51.976;20.144;2022-08-21T02:59:34;4.53;;;4.13;;
36651;SDS011;53334;51.976;20.144;2022-08-21T03:02:08;4.82;;;4.30;;
36651;SDS011;53334;51.976;20.144;2022-08-21T03:04:46;4.63;;;4.22;;
36651;SDS011;53334;51.976;20.144;2022-08-21T03:07:20;4.18;;;3.78;;
36651;SDS011;53334;51.976;20.144;2022-08-21T03:09:56;4.70;;;4.15;;
36651;SDS011;53334;51.976;20.144;2022-08-21T03:12:30;4.32;;;3.92;;
36651;SDS011;53334;51.976;20.144;2022-08-21T03:15:09;4.20;;;3.80;;
36651;SDS011;53334;51.976;20.144;2022-08-21T03:17:49;4.47;;;4.07;;
36651;SDS011;53334;51.976;20.144;2022-08-21T03:20:25;5.00;;;4.30;;
36651;SDS011;53334;51.976;20.144;2022-08-21T03:23:02;5.03;;;4.40;;
36651;SDS011;53334;51.976;20.144;2022-08-21T03:25:46;4.63;;;3.85;;
36651;SDS011;53334;51.976;20.144;2022-08-21T03:28:21;5.22;;;4.72;;
36651;SDS011;53334;51.976;20.144;2022-08-21T03:30:55;4.38;;;3.97;;
36651;SDS011;53334;51.976;20.144;2022-08-21T03:33:29;4.93;;;4.47;;
36651;SDS011;53334;51.976;20.144;2022-08-21T03:36:06;4.57;;;4.18;;
36651;SDS011;53334;51.976;20.144;2022-08-21T03:38:41;4.53;;;4.13;;
36651;SDS011;53334;51.976;20.144;2022-08-21T03:41:17;4.03;;;3.72;;
36651;SDS011;53334;51.976;20.144;2022-08-21T03:43:51;4.38;;;3.97;;
36651;SDS011;53334;51.976;20.144;2022-08-21T03:46:25;4.43;;;4.03;;
36651;SDS011;53334;51.976;20.144;2022-08-21T03:48:59;4.10;;;3.80;;
36651;SDS011;53334;51.976;20.144;2022-08-21T03:51:35;4.25;;;3.85;;
36651;SDS011;53334;51.976;20.144;2022-08-21T03:54:09;4.28;;;3.97;;
36651;SDS011;53334;51.976;20.144;2022-08-21T03:56:45;4.40;;;4.03;;
36651;SDS011;53334;51.976;20.144;2022-08-21T03:59:21;4.18;;;3.78;;
36651;SDS011;53334;51.976;20.144;2022-08-21T04:01:58;4.15;;;3.80;;
36651;SDS011;53334;51.976;20.144;2022-08-21T04:04:33;4.88;;;4.47;;
36651;SDS011;53334;51.976;20.144;2022-08-21T04:07:08;4.25;;;3.85;;
36651;SDS011;53334;51.976;20.144;2022-08-21T04:09:44;4.65;;;4.25;;
36651;SDS011;53334;51.976;20.144;2022-08-21T04:12:19;3.92;;;3.63;;
36651;SDS011;53334;51.976;20.144;2022-08-21T04:14:56;4.88;;;4.22;;
36651;SDS011;53334;51.976;20.144;2022-08-21T04:17:30;4.40;;;4.10;;
36651;SDS011;53334;51.976;20.144;2022-08-21T04:20:05;4.05;;;3.75;;
36651;SDS011;53334;51.976;20.144;2022-08-21T04:22:39;4.25;;;3.85;;
36651;SDS011;53334;51.976;20.144;2022-08-21T04:25:14;4.13;;;3.72;;
36651;SDS011;53334;51.976;20.144;2022-08-21T04:27:50;3.60;;;3.30;;
36651;SDS011;53334;51.976;20.144;2022-08-21T04:30:27;4.05;;;3.72;;
36651;SDS011;53334;51.976;20.144;2022-08-21T04:33:01;5.13;;;4.65;;
36651;SDS011;53334;51.976;20.144;2022-08-21T04:35:35;5.15;;;4.65;;
36651;SDS011;53334;51.976;20.144;2022-08-21T04:38:10;4.50;;;4.13;;
36651;SDS011;53334;51.976;20.144;2022-08-21T04:40:44;4.32;;;3.92;;
36651;SDS011;53334;51.976;20.144;2022-08-21T04:43:20;3.67;;;3.42;;
36651;SDS011;53334;51.976;20.144;2022-08-21T04:45:55;4.05;;;3.70;;
36651;SDS011;53334;51.976;20.144;2022-08-21T04:48:29;4.38;;;4.07;;
36651;SDS011;53334;51.976;20.144;2022-08-21T04:51:06;4.38;;;3.97;;
36651;SDS011;53334;51.976;20.144;2022-08-21T04:53:44;4.05;;;3.75;;
36651;SDS011;53334;51.976;20.144;2022-08-21T04:56:31;3.95;;;3.65;;
36651;SDS011;53334;51.976;20.144;2022-08-21T04:59:12;4.47;;;4.15;;
36651;SDS011;53334;51.976;20.144;2022-08-21T05:01:48;4.50;;;4.10;;
36651;SDS011;53334;51.976;20.144;2022-08-21T05:04:29;4.15;;;3.85;;
36651;SDS011;53334;51.976;20.144;2022-08-21T05:07:11;4.55;;;4.13;;
36651;SDS011;53334;51.976;20.144;2022-08-21T05:10:09;4.07;;;3.55;;
36651;SDS011;53334;51.976;20.144;2022-08-21T05:12:44;4.30;;;4.00;;
36651;SDS011;53334;51.976;20.144;2022-08-21T05:15:20;4.13;;;3.72;;
36651;SDS011;53334;51.976;20.144;2022-08-21T05:17:54;3.83;;;3.53;;
36651;SDS011;53334;51.976;20.144;2022-08-21T05:20:32;4.10;;;3.75;;
36651;SDS011;53334;51.976;20.144;2022-08-21T05:23:08;4.18;;;3.88;;
36651;SDS011;53334;51.976;20.144;2022-08-21T05:25:44;4.20;;;3.85;;
36651;SDS011;53334;51.976;20.144;2022-08-21T05:28:22;4.20;;;3.80;;
36651;SDS011;53334;51.976;20.144;2022-08-21T05:30:59;3.80;;;3.50;;
36651;SDS011;53334;51.976;20.144;2022-08-21T05:33:33;4.95;;;4.38;;
36651;SDS011;53334;51.976;20.144;2022-08-21T05:36:11;4.55;;;4.15;;
36651;SDS011;53334;51.976;20.144;2022-08-21T05:38:45;4.38;;;3.97;;
36651;SDS011;53334;51.976;20.144;2022-08-21T05:41:19;4.45;;;4.10;;
36651;SDS011;53334;51.976;20.144;2022-08-21T05:43:53;4.38;;;4.00;;
36651;SDS011;53334;51.976;20.144;2022-08-21T05:46:28;4.07;;;3.75;;
36651;SDS011;53334;51.976;20.144;2022-08-21T05:49:03;4.45;;;4.05;;
36651;SDS011;53334;51.976;20.144;2022-08-21T05:51:38;4.32;;;3.50;;
36651;SDS011;53334;51.976;20.144;2022-08-21T05:54:13;4.20;;;3.90;;
36651;SDS011;53334;51.976;20.144;2022-08-21T05:56:48;4.38;;;3.97;;
36651;SDS011;53334;51.976;20.144;2022-08-21T05:59:23;4.00;;;3.60;;
36651;SDS011;53334;51.976;20.144;2022-08-21T06:01:59;4.05;;;3.72;;
36651;SDS011;53334;51.976;20.144;2022-08-21T06:04:36;5.32;;;3.53;;
36651;SDS011;53334;51.976;20.144;2022-08-21T06:07:11;3.78;;;3.47;;
36651;SDS011;53334;51.976;20.144;2022-08-21T06:09:47;4.05;;;3.67;;
36651;SDS011;53334;51.976;20.144;2022-08-21T06:12:21;4.20;;;3.83;;
36651;SDS011;53334;51.976;20.144;2022-08-21T06:14:56;3.95;;;3.65;;
36651;SDS011;53334;51.976;20.144;2022-08-21T06:17:31;4.05;;;3.72;;
36651;SDS011;53334;51.976;20.144;2022-08-21T06:20:06;3.75;;;3.45;;
36651;SDS011;53334;51.976;20.144;2022-08-21T06:22:41;4.60;;;4.20;;
36651;SDS011;53334;51.976;20.144;2022-08-21T06:25:15;4.35;;;3.95;;
36651;SDS011;53334;51.976;20.144;2022-08-21T06:27:50;3.78;;;3.40;;
36651;SDS011;53334;51.976;20.144;2022-08-21T06:30:24;4.38;;;3.97;;
36651;SDS011;53334;51.976;20.144;2022-08-21T06:32:59;4.97;;;3.78;;
36651;SDS011;53334;51.976;20.144;2022-08-21T06:35:34;4.03;;;3.72;;
36651;SDS011;53334;51.976;20.144;2022-08-21T06:38:12;3.92;;;3.63;;
36651;SDS011;53334;51.976;20.144;2022-08-21T06:40:46;4.53;;;4.13;;
36651;SDS011;53334;51.976;20.144;2022-08-21T06:43:20;3.67;;;3.38;;
36651;SDS011;53334;51.976;20.144;2022-08-21T06:46:09;3.97;;;3.67;;
36651;SDS011;53334;51.976;20.144;2022-08-21T06:48:44;3.88;;;3.58;;
36651;SDS011;53334;51.976;20.144;2022-08-21T06:51:18;4.03;;;3.70;;
36651;SDS011;53334;51.976;20.144;2022-08-21T06:53:53;3.75;;;3.45;;
36651;SDS011;53334;51.976;20.144;2022-08-21T06:56:30;4.00;;;3.67;;
36651;SDS011;53334;51.976;20.144;2022-08-21T06:59:05;3.60;;;3.30;;
36651;SDS011;53334;51.976;20.144;2022-08-21T07:01:39;4.28;;;3.80;;
36651;SDS011;53334;51.976;20.144;2022-08-21T07:04:14;4.18;;;3.83;;
36651;SDS011;53334;51.976;20.144;2022-08-21T07:06:48;3.58;;;3.28;;
36651;SDS011;53334;51.976;20.144;2022-08-21T07:09:22;4.55;;;4.15;;
36651;SDS011;53334;51.976;20.144;2022-08-21T07:11:56;3.58;;;3.28;;
36651;SDS011;53334;51.976;20.144;2022-08-21T07:14:31;3.85;;;3.47;;
36651;SDS011;53334;51.976;20.144;2022-08-21T07:17:05;3.17;;;2.92;;
36651;SDS011;53334;51.976;20.144;2022-08-21T07:19:40;4.07;;;3.70;;
36651;SDS011;53334;51.976;20.144;2022-08-21T07:22:14;3.70;;;3.40;;
36651;SDS011;53334;51.976;20.144;2022-08-21T07:24:50;4.13;;;3.72;;
36651;SDS011;53334;51.976;20.144;2022-08-21T07:27:25;3.33;;;3.03;;
36651;SDS011;53334;51.976;20.144;2022-08-21T07:29:59;4.38;;;3.83;;
36651;SDS011;53334;51.976;20.144;2022-08-21T07:32:33;4.10;;;3.75;;
36651;SDS011;53334;51.976;20.144;2022-08-21T07:35:08;3.97;;;3.58;;
36651;SDS011;53334;51.976;20.144;2022-08-21T07:37:43;3.28;;;3.08;;
36651;SDS011;53334;51.976;20.144;2022-08-21T07:40:17;2.95;;;2.70;;
36651;SDS011;53334;51.976;20.144;2022-08-21T07:42:51;3.50;;;3.20;;
36651;SDS011;53334;51.976;20.144;2022-08-21T07:45:26;3.95;;;3.40;;
36651;SDS011;53334;51.976;20.144;2022-08-21T07:48:01;3.78;;;3.47;;
36651;SDS011;53334;51.976;20.144;2022-08-21T07:50:37;3.90;;;3.50;;
36651;SDS011;53334;51.976;20.144;2022-08-21T07:53:11;3.83;;;3.53;;
36651;SDS011;53334;51.976;20.144;2022-08-21T07:55:45;5.60;;;3.72;;
36651;SDS011;53334;51.976;20.144;2022-08-21T07:58:19;3.78;;;3.47;;
36651;SDS011;53334;51.976;20.144;2022-08-21T08:00:53;4.25;;;3.80;;
36651;SDS011;53334;51.976;20.144;2022-08-21T08:03:27;3.47;;;3.17;;
36651;SDS011;53334;51.976;20.144;2022-08-21T08:06:02;3.70;;;3.40;;
36651;SDS011;53334;51.976;20.144;2022-08-21T08:08:36;3.70;;;3.40;;
36651;SDS011;53334;51.976;20.144;2022-08-21T08:11:12;3.60;;;3.33;;
36651;SDS011;53334;51.976;20.144;2022-08-21T08:13:48;3.22;;;3.03;;
36651;SDS011;53334;51.976;20.144;2022-08-21T08:16:24;3.47;;;3.17;;
36651;SDS011;53334;51.976;20.144;2022-08-21T08:18:58;4.00;;;3.70;;
36651;SDS011;53334;51.976;20.144;2022-08-21T08:21:33;3.45;;;3.15;;
36651;SDS011;53334;51.976;20.144;2022-08-21T08:24:09;3.70;;;3.40;;
36651;SDS011;53334;51.976;20.144;2022-08-21T08:26:50;2.88;;;2.67;;
36651;SDS011;53334;51.976;20.144;2022-08-21T08:29:25;3.15;;;2.85;;
36651;SDS011;53334;51.976;20.144;2022-08-21T08:32:00;3.53;;;3.22;;
36651;SDS011;53334;51.976;20.144;2022-08-21T08:34:34;4.60;;;3.90;;
36651;SDS011;53334;51.976;20.144;2022-08-21T08:37:11;3.20;;;2.90;;
36651;SDS011;53334;51.976;20.144;2022-08-21T08:39:45;3.05;;;2.75;;
36651;SDS011;53334;51.976;20.144;2022-08-21T08:42:23;3.30;;;3.00;;
36651;SDS011;53334;51.976;20.144;2022-08-21T08:45:06;3.17;;;2.97;;
36651;SDS011;53334;51.976;20.144;2022-08-21T08:47:43;3.85;;;3.55;;
36651;SDS011;53334;51.976;20.144;2022-08-21T08:50:21;3.45;;;3.15;;
36651;SDS011;53334;51.976;20.144;2022-08-21T08:53:02;3.00;;;2.78;;
36651;SDS011;53334;51.976;20.144;2022-08-21T08:55:39;3.42;;;3.13;;
36651;SDS011;53334;51.976;20.144;2022-08-21T08:58:16;3.38;;;3.08;;
36651;SDS011;53334;51.976;20.144;2022-08-21T09:00:55;3.72;;;3.42;;
36651;SDS011;53334;51.976;20.144;2022-08-21T09:03:30;3.63;;;3.33;;
36651;SDS011;53334;51.976;20.144;2022-08-21T09:06:06;3.00;;;2.80;;
36651;SDS011;53334;51.976;20.144;2022-08-21T09:08:48;3.47;;;3.17;;
36651;SDS011;53334;51.976;20.144;2022-08-21T09:11:28;3.00;;;2.80;;
36651;SDS011;53334;51.976;20.144;2022-08-21T09:14:08;3.40;;;3.10;;
36651;SDS011;53334;51.976;20.144;2022-08-21T09:16:51;3.33;;;3.03;;
36651;SDS011;53334;51.976;20.144;2022-08-21T09:19:38;3.47;;;3.17;;
36651;SDS011;53334;51.976;20.144;2022-08-21T09:22:28;2.92;;;2.72;;
36651;SDS011;53334;51.976;20.144;2022-08-21T09:25:15;3.28;;;2.97;;
36651;SDS011;53334;51.976;20.144;2022-08-21T09:27:55;2.97;;;2.78;;
36651;SDS011;53334;51.976;20.144;2022-08-21T09:30:30;3.58;;;3.28;;
36651;SDS011;53334;51.976;20.144;2022-08-21T09:33:05;3.45;;;3.15;;
36651;SDS011;53334;51.976;20.144;2022-08-21T09:35:47;5.18;;;3.22;;
36651;SDS011;53334;51.976;20.144;2022-08-21T09:38:27;3.15;;;2.95;;
36651;SDS011;53334;51.976;20.144;2022-08-21T09:41:06;5.65;;;3.00;;
36651;SDS011;53334;51.976;20.144;2022-08-21T09:43:51;3.58;;;3.28;;
36651;SDS011;53334;51.976;20.144;2022-08-21T09:46:26;2.90;;;2.70;;
36651;SDS011;53334;51.976;20.144;2022-08-21T09:49:01;3.17;;;2.97;;
36651;SDS011;53334;51.976;20.144;2022-08-21T09:51:48;3.88;;;3.58;;
36651;SDS011;53334;51.976;20.144;2022-08-21T09:54:26;2.65;;;2.47;;
36651;SDS011;53334;51.976;20.144;2022-08-21T09:57:14;3.58;;;3.28;;
36651;SDS011;53334;51.976;20.144;2022-08-21T10:00:18;3.33;;;3.03;;
36651;SDS011;53334;51.976;20.144;2022-08-21T10:03:07;3.38;;;3.17;;
36651;SDS011;53334;51.976;20.144;2022-08-21T10:05:50;2.83;;;2.63;;
36651;SDS011;53334;51.976;20.144;2022-08-21T10:08:26;2.80;;;2.60;;
36651;SDS011;53334;51.976;20.144;2022-08-21T10:11:03;2.90;;;2.70;;
36651;SDS011;53334;51.976;20.144;2022-08-21T10:13:46;3.63;;;3.33;;
36651;SDS011;53334;51.976;20.144;2022-08-21T10:16:29;3.50;;;3.20;;
36651;SDS011;53334;51.976;20.144;2022-08-21T10:19:14;3.00;;;2.80;;
36651;SDS011;53334;51.976;20.144;2022-08-21T10:21:58;3.45;;;3.15;;
36651;SDS011;53334;51.976;20.144;2022-08-21T10:24:38;3.05;;;2.85;;
36651;SDS011;53334;51.976;20.144;2022-08-21T10:27:22;2.95;;;2.75;;
36651;SDS011;53334;51.976;20.144;2022-08-21T10:30:07;2.85;;;2.65;;
36651;SDS011;53334;51.976;20.144;2022-08-21T10:32:57;3.38;;;3.10;;
36651;SDS011;53334;51.976;20.144;2022-08-21T10:35:44;3.60;;;3.30;;
36651;SDS011;53334;51.976;20.144;2022-08-21T10:38:32;3.53;;;3.22;;
36651;SDS011;53334;51.976;20.144;2022-08-21T10:41:47;3.22;;;2.92;;
36651;SDS011;53334;51.976;20.144;2022-08-21T10:44:38;3.30;;;3.00;;
36651;SDS011;53334;51.976;20.144;2022-08-21T10:47:24;3.42;;;3.13;;
36651;SDS011;53334;51.976;20.144;2022-08-21T10:50:08;3.50;;;3.20;;
36651;SDS011;53334;51.976;20.144;2022-08-21T10:52:52;3.72;;;3.05;;
36651;SDS011;53334;51.976;20.144;2022-08-21T10:55:35;3.40;;;3.10;;
36651;SDS011;53334;51.976;20.144;2022-08-21T10:58:14;3.08;;;2.78;;
36651;SDS011;53334;51.976;20.144;2022-08-21T11:00:58;3.13;;;2.88;;
36651;SDS011;53334;51.976;20.144;2022-08-21T11:03:43;3.00;;;2.70;;
36651;SDS011;53334;51.976;20.144;2022-08-21T11:06:20;3.05;;;2.80;;
36651;SDS011;53334;51.976;20.144;2022-08-21T11:08:57;3.20;;;3.00;;
36651;SDS011;53334;51.976;20.144;2022-08-21T11:11:36;3.17;;;2.88;;
36651;SDS011;53334;51.976;20.144;2022-08-21T11:14:31;2.53;;;2.33;;
36651;SDS011;53334;51.976;20.144;2022-08-21T11:17:22;5.05;;;3.58;;
36651;SDS011;53334;51.976;20.144;2022-08-21T11:20:04;3.03;;;2.75;;
36651;SDS011;53334;51.976;20.144;2022-08-21T11:22:44;2.85;;;2.65;;
36651;SDS011;53334;51.976;20.144;2022-08-21T11:25:27;2.88;;;2.67;;
36651;SDS011;53334;51.976;20.144;2022-08-21T11:28:09;2.90;;;2.70;;
36651;SDS011;53334;51.976;20.144;2022-08-21T11:30:51;3.17;;;2.88;;
36651;SDS011;53334;51.976;20.144;2022-08-21T11:33:37;3.03;;;2.83;;
36651;SDS011;53334;51.976;20.144;2022-08-21T11:36:26;2.72;;;2.53;;
36651;SDS011;53334;51.976;20.144;2022-08-21T11:39:11;3.40;;;3.10;;
36651;SDS011;53334;51.976;20.144;2022-08-21T11:42:02;3.25;;;3.05;;
36651;SDS011;53334;51.976;20.144;2022-08-21T11:44:49;2.97;;;2.67;;
36651;SDS011;53334;51.976;20.144;2022-08-21T11:47:31;3.33;;;3.03;;
36651;SDS011;53334;51.976;20.144;2022-08-21T11:50:15;2.78;;;2.58;;
36651;SDS011;53334;51.976;20.144;2022-08-21T11:53:09;3.63;;;3.20;;
36651;SDS011;53334;51.976;20.144;2022-08-21T11:55:48;2.90;;;2.70;;
36651;SDS011;53334;51.976;20.144;2022-08-21T11:58:26;2.75;;;2.55;;
36651;SDS011;53334;51.976;20.144;2022-08-21T12:01:07;2.70;;;2.50;;
36651;SDS011;53334;51.976;20.144;2022-08-21T12:03:44;3.00;;;2.80;;
36651;SDS011;53334;51.976;20.144;2022-08-21T12:06:29;3.03;;;2.70;;
36651;SDS011;53334;51.976;20.144;2022-08-21T12:09:07;3.15;;;2.95;;
36651;SDS011;53334;51.976;20.144;2022-08-21T12:11:46;2.95;;;2.75;;
36651;SDS011;53334;51.976;20.144;2022-08-21T12:14:23;3.38;;;3.08;;
36651;SDS011;53334;51.976;20.144;2022-08-21T12:17:03;2.60;;;2.40;;
36651;SDS011;53334;51.976;20.144;2022-08-21T12:19:43;2.88;;;2.67;;
36651;SDS011;53334;51.976;20.144;2022-08-21T12:22:17;3.00;;;2.75;;
36651;SDS011;53334;51.976;20.144;2022-08-21T12:25:02;2.72;;;2.53;;
36651;SDS011;53334;51.976;20.144;2022-08-21T12:27:41;2.63;;;2.42;;
36651;SDS011;53334;51.976;20.144;2022-08-21T12:30:20;2.72;;;2.53;;
36651;SDS011;53334;51.976;20.144;2022-08-21T12:33:09;3.50;;;3.20;;
36651;SDS011;53334;51.976;20.144;2022-08-21T12:36:00;2.28;;;2.17;;
36651;SDS011;53334;51.976;20.144;2022-08-21T12:38:39;2.88;;;2.67;;
36651;SDS011;53334;51.976;20.144;2022-08-21T12:41:24;2.95;;;2.75;;
36651;SDS011;53334;51.976;20.144;2022-08-21T12:44:04;2.72;;;2.53;;
36651;SDS011;53334;51.976;20.144;2022-08-21T12:46:43;3.13;;;2.92;;
36651;SDS011;53334;51.976;20.144;2022-08-21T12:49:22;2.70;;;2.50;;
36651;SDS011;53334;51.976;20.144;2022-08-21T12:52:01;2.75;;;2.55;;
36651;SDS011;53334;51.976;20.144;2022-08-21T12:54:42;2.70;;;2.50;;
36651;SDS011;53334;51.976;20.144;2022-08-21T12:57:20;2.92;;;2.72;;
36651;SDS011;53334;51.976;20.144;2022-08-21T13:00:00;2.50;;;2.30;;
36651;SDS011;53334;51.976;20.144;2022-08-21T13:02:39;2.72;;;2.53;;
36651;SDS011;53334;51.976;20.144;2022-08-21T13:05:19;2.78;;;2.58;;
36651;SDS011;53334;51.976;20.144;2022-08-21T13:08:03;3.03;;;2.80;;
36651;SDS011;53334;51.976;20.144;2022-08-21T13:10:39;2.65;;;2.45;;
36651;SDS011;53334;51.976;20.144;2022-08-21T13:13:24;3.10;;;2.50;;
36651;SDS011;53334;51.976;20.144;2022-08-21T13:16:00;3.05;;;2.80;;
36651;SDS011;53334;51.976;20.144;2022-08-21T13:18:39;3.03;;;2.78;;
36651;SDS011;53334;51.976;20.144;2022-08-21T13:21:27;2.60;;;2.40;;
36651;SDS011;53334;51.976;20.144;2022-08-21T13:24:13;3.03;;;2.83;;
36651;SDS011;53334;51.976;20.144;2022-08-21T13:27:20;3.40;;;3.10;;
36651;SDS011;53334;51.976;20.144;2022-08-21T13:30:03;2.83;;;2.55;;
36651;SDS011;53334;51.976;20.144;2022-08-21T13:32:40;2.60;;;2.40;;
36651;SDS011;53334;51.976;20.144;2022-08-21T13:35:16;2.50;;;2.30;;
36651;SDS011;53334;51.976;20.144;2022-08-21T13:37:53;2.35;;;2.15;;
36651;SDS011;53334;51.976;20.144;2022-08-21T13:40:29;2.67;;;2.47;;
36651;SDS011;53334;51.976;20.144;2022-08-21T13:43:11;2.80;;;2.58;;
36651;SDS011;53334;51.976;20.144;2022-08-21T13:45:53;2.67;;;2.47;;
36651;SDS011;53334;51.976;20.144;2022-08-21T13:48:29;2.53;;;2.35;;
36651;SDS011;53334;51.976;20.144;2022-08-21T13:51:07;3.53;;;3.15;;
36651;SDS011;53334;51.976;20.144;2022-08-21T13:53:47;2.70;;;2.50;;
36651;SDS011;53334;51.976;20.144;2022-08-21T13:56:25;2.22;;;2.13;;
36651;SDS011;53334;51.976;20.144;2022-08-21T13:59:00;2.70;;;2.50;;
36651;SDS011;53334;51.976;20.144;2022-08-21T14:01:38;2.78;;;2.58;;
36651;SDS011;53334;51.976;20.144;2022-08-21T14:04:29;3.33;;;2.85;;
36651;SDS011;53334;51.976;20.144;2022-08-21T14:07:13;2.90;;;2.70;;
36651;SDS011;53334;51.976;20.144;2022-08-21T14:09:49;2.53;;;2.40;;
36651;SDS011;53334;51.976;20.144;2022-08-21T14:12:24;3.00;;;2.80;;
36651;SDS011;53334;51.976;20.144;2022-08-21T14:15:02;2.88;;;2.67;;
36651;SDS011;53334;51.976;20.144;2022-08-21T14:17:39;2.85;;;2.60;;
36651;SDS011;53334;51.976;20.144;2022-08-21T14:20:25;2.40;;;2.20;;
36651;SDS011;53334;51.976;20.144;2022-08-21T14:23:01;2.53;;;2.33;;
36651;SDS011;53334;51.976;20.144;2022-08-21T14:25:39;3.20;;;2.92;;
36651;SDS011;53334;51.976;20.144;2022-08-21T14:28:19;2.80;;;2.60;;
36651;SDS011;53334;51.976;20.144;2022-08-21T14:30:59;2.53;;;2.33;;
36651;SDS011;53334;51.976;20.144;2022-08-21T14:33:48;3.17;;;2.58;;
36651;SDS011;53334;51.976;20.144;2022-08-21T14:36:22;2.40;;;2.20;;
36651;SDS011;53334;51.976;20.144;2022-08-21T14:38:56;2.15;;;2.05;;
36651;SDS011;53334;51.976;20.144;2022-08-21T14:41:30;2.70;;;2.50;;
36651;SDS011;53334;51.976;20.144;2022-08-21T14:44:04;2.30;;;2.10;;
36651;SDS011;53334;51.976;20.144;2022-08-21T14:46:40;3.00;;;2.70;;
36651;SDS011;53334;51.976;20.144;2022-08-21T14:49:29;2.67;;;2.47;;
36651;SDS011;53334;51.976;20.144;2022-08-21T14:52:03;2.63;;;2.42;;
36651;SDS011;53334;51.976;20.144;2022-08-21T14:54:37;2.88;;;2.67;;
36651;SDS011;53334;51.976;20.144;2022-08-21T14:57:11;2.85;;;2.65;;
36651;SDS011;53334;51.976;20.144;2022-08-21T14:59:45;2.65;;;2.42;;
36651;SDS011;53334;51.976;20.144;2022-08-21T15:02:20;2.80;;;2.47;;
36651;SDS011;53334;51.976;20.144;2022-08-21T15:04:55;2.60;;;2.40;;
36651;SDS011;53334;51.976;20.144;2022-08-21T15:07:29;2.80;;;2.60;;
36651;SDS011;53334;51.976;20.144;2022-08-21T15:10:03;2.55;;;2.35;;
36651;SDS011;53334;51.976;20.144;2022-08-21T15:12:40;3.00;;;2.80;;
36651;SDS011;53334;51.976;20.144;2022-08-21T15:15:14;2.80;;;2.60;;
36651;SDS011;53334;51.976;20.144;2022-08-21T15:17:49;2.70;;;2.50;;
36651;SDS011;53334;51.976;20.144;2022-08-21T15:20:24;3.28;;;2.20;;
36651;SDS011;53334;51.976;20.144;2022-08-21T15:22:58;2.60;;;2.40;;
36651;SDS011;53334;51.976;20.144;2022-08-21T15:25:32;2.50;;;2.30;;
36651;SDS011;53334;51.976;20.144;2022-08-21T15:28:07;2.38;;;2.17;;
36651;SDS011;53334;51.976;20.144;2022-08-21T15:30:42;2.85;;;2.65;;
36651;SDS011;53334;51.976;20.144;2022-08-21T15:33:18;2.63;;;2.42;;
36651;SDS011;53334;51.976;20.144;2022-08-21T15:35:54;2.72;;;2.53;;